createdAt,value
2023-02-11T00:01:30.814Z,40.43
2023-02-11T00:06:34.172Z,40.32
2023-02-11T00:11:36.473Z,40.27
2023-02-11T00:16:38.648Z,40.28
2023-02-11T00:21:40.577Z,40.23
2023-02-11T00:26:42.840Z,40.47
2023-02-11T00:31:45.013Z,40.10
2023-02-11T00:36:47.098Z,40.18
2023-02-11T00:41:49.082Z,40.21
2023-02-11T00:46:50.945Z,40.27
2023-02-11T00:51:53.347Z,40.23
2023-02-11T00:56:55.264Z,40.17
2023-02-11T01:01:57.223Z,39.74
2023-02-11T01:06:59.067Z,39.60
2023-02-11T01:12:01.042Z,39.91
2023-02-11T01:17:06.066Z,39.97
2023-02-11T01:22:08.147Z,39.96
2023-02-11T01:27:10.221Z,39.79
2023-02-11T01:32:12.232Z,40.05
2023-02-11T01:37:14.264Z,39.99
2023-02-11T01:42:18.570Z,39.86
2023-02-11T01:47:21.645Z,39.98
2023-02-11T01:52:35.541Z,39.98
2023-02-11T01:57:40.545Z,39.77
2023-02-11T02:02:48.376Z,39.77
2023-02-11T02:08:22.170Z,39.91
2023-02-11T02:13:24.470Z,40.09
2023-02-11T02:18:40.259Z,40.08
2023-02-11T02:23:47.637Z,39.89
2023-02-11T02:29:20.766Z,39.91
2023-02-11T02:35:16.871Z,39.90
2023-02-11T02:40:33.524Z,40.07
2023-02-11T02:45:35.634Z,39.89
2023-02-11T02:50:38.300Z,39.98
2023-02-11T02:56:04.703Z,40.17
2023-02-11T03:01:26.691Z,40.01
2023-02-11T03:07:17.087Z,40.06
2023-02-11T03:12:21.375Z,39.87
2023-02-11T03:17:26.424Z,39.82
2023-02-11T03:22:38.059Z,39.89
2023-02-11T03:28:01.738Z,39.94
2023-02-11T03:33:14.850Z,40.12
2023-02-11T03:38:22.912Z,39.78
2023-02-11T03:43:34.049Z,40.12
2023-02-11T03:48:42.196Z,40.08
2023-02-11T03:53:46.989Z,39.85
2023-02-11T03:58:49.388Z,40.07
2023-02-11T04:03:51.310Z,39.88
2023-02-11T04:08:53.556Z,40.18
2023-02-11T04:13:55.303Z,40.12
2023-02-11T04:18:58.130Z,40.14
2023-02-11T04:24:00.166Z,39.92
2023-02-11T04:29:02.157Z,39.83
2023-02-11T04:34:04.090Z,40.50
2023-02-11T04:39:06.233Z,39.90
2023-02-11T04:44:08.171Z,40.02
2023-02-11T04:49:13.777Z,39.98
2023-02-11T04:54:15.651Z,40.03
2023-02-11T04:59:17.793Z,40.12
2023-02-11T05:04:19.827Z,40.27
2023-02-11T05:09:21.909Z,40.46
2023-02-11T05:14:23.782Z,40.31
2023-02-11T05:19:25.649Z,39.95
2023-02-11T05:24:27.621Z,39.98
2023-02-11T05:29:29.773Z,40.29
2023-02-11T05:34:31.737Z,39.79
2023-02-11T05:39:33.725Z,40.08
2023-02-11T05:44:35.729Z,40.01
2023-02-11T05:49:37.581Z,40.12
2023-02-11T05:54:39.885Z,40.19
2023-02-11T05:59:42.011Z,40.43
2023-02-11T06:04:44.596Z,40.33
2023-02-11T06:09:46.607Z,40.35
2023-02-11T06:14:48.636Z,40.31
2023-02-11T06:19:50.704Z,40.09
2023-02-11T06:25:01.369Z,40.39
2023-02-11T06:30:05.701Z,40.12
2023-02-11T06:35:10.751Z,40.23
2023-02-11T06:40:13.685Z,40.23
2023-02-11T06:45:15.677Z,40.30
2023-02-11T06:50:17.549Z,40.24
2023-02-11T06:55:19.460Z,39.93
2023-02-11T07:00:21.434Z,40.42
2023-02-11T07:05:23.591Z,40.52
2023-02-11T07:10:25.561Z,40.57
2023-02-11T07:15:27.438Z,40.47
2023-02-11T07:20:29.524Z,40.59
2023-02-11T07:25:31.616Z,40.52
2023-02-11T07:30:33.555Z,40.63
2023-02-11T07:35:35.844Z,40.36
2023-02-11T07:40:37.958Z,40.64
2023-02-11T07:45:40.088Z,40.73
2023-02-11T07:50:42.113Z,40.93
2023-02-11T07:55:44.431Z,40.85
2023-02-11T08:00:46.455Z,40.76
2023-02-11T08:05:48.387Z,40.97
2023-02-11T08:10:50.722Z,40.75
2023-02-11T08:15:53.069Z,40.52
2023-02-11T08:20:55.053Z,40.83
2023-02-11T08:26:00.924Z,40.60
2023-02-11T08:31:07.654Z,40.52
2023-02-11T08:36:14.786Z,40.79
2023-02-11T08:41:17.586Z,40.56
2023-02-11T08:46:20.654Z,40.95
2023-02-11T08:51:25.769Z,41.00
2023-02-11T08:56:28.287Z,40.90
2023-02-11T09:01:31.922Z,40.88
2023-02-11T09:06:33.802Z,40.80
2023-02-11T09:11:36.353Z,41.04
2023-02-11T09:16:38.383Z,41.08
2023-02-11T09:21:40.439Z,40.66
2023-02-11T09:26:43.943Z,40.93
2023-02-11T09:31:45.895Z,40.48
2023-02-11T09:36:48.101Z,41.25
2023-02-11T09:42:07.644Z,41.99
2023-02-11T09:47:33.037Z,41.92
2023-02-11T09:52:44.662Z,41.86
2023-02-11T09:57:47.038Z,41.45
2023-02-11T10:03:16.387Z,41.56
2023-02-11T10:08:50.938Z,41.16
2023-02-11T10:14:09.889Z,41.38
2023-02-11T10:19:27.214Z,41.18
2023-02-11T10:24:29.322Z,40.94
2023-02-11T10:29:40.549Z,40.89
2023-02-11T10:34:42.971Z,40.91
2023-02-11T10:39:45.703Z,43.38
2023-02-11T10:44:59.211Z,43.57
2023-02-11T10:50:03.831Z,45.45
2023-02-11T10:55:16.565Z,45.75
2023-02-11T11:00:19.058Z,45.24
2023-02-11T11:05:27.261Z,45.64
2023-02-11T11:10:36.708Z,45.57
2023-02-11T11:15:38.702Z,46.50
2023-02-11T11:20:54.927Z,46.59
2023-02-11T11:26:04.969Z,46.97
2023-02-11T11:31:15.631Z,45.98
2023-02-11T11:36:22.361Z,45.45
2023-02-11T11:41:31.060Z,45.53
2023-02-11T11:46:40.609Z,44.75
2023-02-11T11:51:47.873Z,45.54
2023-02-11T11:57:02.894Z,46.37
2023-02-11T12:02:08.644Z,46.36
2023-02-11T12:07:47.927Z,46.72
2023-02-11T12:13:01.990Z,46.63
2023-02-11T12:18:33.538Z,46.58
2023-02-11T12:23:44.693Z,46.17
2023-02-11T12:29:08.949Z,46.10
2023-02-11T12:34:38.826Z,46.04
2023-02-11T12:39:48.525Z,45.40
2023-02-11T12:44:58.947Z,46.20
2023-02-11T12:50:39.178Z,46.44
2023-02-11T12:55:45.911Z,45.82
2023-02-11T13:01:04.510Z,45.71
2023-02-11T13:06:17.931Z,44.91
2023-02-11T13:11:37.385Z,44.68
2023-02-11T13:16:51.040Z,44.28
2023-02-11T13:22:18.341Z,44.85
2023-02-11T13:27:43.612Z,43.97
2023-02-11T13:32:54.458Z,43.76
2023-02-11T13:37:58.026Z,44.47
2023-02-11T13:43:02.803Z,46.36
2023-02-11T13:48:14.991Z,47.13
2023-02-11T13:53:18.043Z,46.59
2023-02-11T13:58:36.693Z,46.84
2023-02-11T14:03:58.466Z,46.93
2023-02-11T14:09:10.828Z,46.95
2023-02-11T14:14:31.116Z,47.10
2023-02-11T14:19:41.389Z,47.66
2023-02-11T14:24:51.260Z,47.06
2023-02-11T14:30:18.917Z,46.03
2023-02-11T14:35:32.588Z,45.06
2023-02-11T14:40:56.276Z,44.74
2023-02-11T14:46:00.334Z,44.85
2023-02-11T14:51:10.144Z,44.75
2023-02-11T14:56:38.626Z,44.99
2023-02-11T15:01:42.317Z,44.35
2023-02-11T15:06:50.057Z,44.29
2023-02-11T15:11:52.757Z,44.14
2023-02-11T15:16:59.070Z,44.13
2023-02-11T15:22:00.976Z,43.83
2023-02-11T15:27:08.775Z,46.79
2023-02-11T15:32:10.890Z,46.60
2023-02-11T15:37:26.634Z,45.91
2023-02-11T15:42:40.834Z,45.67
2023-02-11T15:47:52.226Z,47.51
2023-02-11T15:52:56.561Z,48.07
2023-02-11T15:58:01.278Z,48.70
2023-02-11T16:03:03.648Z,48.26
2023-02-11T16:08:26.431Z,47.35
2023-02-11T16:13:29.832Z,46.89
2023-02-11T16:19:03.275Z,46.83
2023-02-11T16:24:08.276Z,47.30
2023-02-11T16:29:20.553Z,47.15
2023-02-11T16:34:25.089Z,47.04
2023-02-11T16:39:27.014Z,46.99
2023-02-11T16:44:29.139Z,46.65
2023-02-11T16:49:35.999Z,46.62
2023-02-11T16:54:38.185Z,46.90
2023-02-11T16:59:40.056Z,45.94
2023-02-11T17:04:42.062Z,46.06
2023-02-11T17:09:44.069Z,46.05
2023-02-11T17:14:45.905Z,45.60
2023-02-11T17:19:48.482Z,45.81
2023-02-11T17:24:50.497Z,45.40
2023-02-11T17:29:52.304Z,45.70
2023-02-11T17:34:54.721Z,45.38
2023-02-11T17:39:56.709Z,45.41
2023-02-11T17:44:58.826Z,44.88
2023-02-11T17:50:01.683Z,45.44
2023-02-11T17:55:03.958Z,45.20
2023-02-11T18:00:08.308Z,45.14
2023-02-11T18:05:10.545Z,45.22
2023-02-11T18:10:12.485Z,45.78
2023-02-11T18:15:14.512Z,46.50
2023-02-11T18:20:16.867Z,46.28
2023-02-11T18:25:19.042Z,46.07
2023-02-11T18:30:21.437Z,46.06
2023-02-11T18:35:24.130Z,46.01
2023-02-11T18:40:26.181Z,46.46
2023-02-11T18:45:31.559Z,46.61
2023-02-11T18:50:33.769Z,45.83
2023-02-11T18:55:35.814Z,46.05
2023-02-11T19:00:40.742Z,46.67
2023-02-11T19:05:43.593Z,46.81
2023-02-11T19:10:47.580Z,46.61
2023-02-11T19:15:50.050Z,47.17
2023-02-11T19:20:52.248Z,46.55
2023-02-11T19:25:54.469Z,45.93
2023-02-11T19:30:56.503Z,45.62
2023-02-11T19:36:08.593Z,45.73
2023-02-11T19:41:11.704Z,45.28
2023-02-11T19:46:13.809Z,45.16
2023-02-11T19:51:16.536Z,44.90
2023-02-11T19:56:20.747Z,44.59
2023-02-11T20:01:24.565Z,44.49
2023-02-11T20:06:29.095Z,44.34
2023-02-11T20:11:32.052Z,44.36
2023-02-11T20:16:47.413Z,44.12
2023-02-11T20:21:56.149Z,44.30
2023-02-11T20:26:58.077Z,43.99
2023-02-11T20:32:00.335Z,44.24
2023-02-11T20:37:04.216Z,44.20
2023-02-11T20:42:06.097Z,43.83
2023-02-11T20:47:07.991Z,43.62
2023-02-11T20:52:09.815Z,43.85
2023-02-11T20:57:11.842Z,43.65
2023-02-11T21:02:13.846Z,43.75
2023-02-11T21:07:15.811Z,43.56
2023-02-11T21:12:17.720Z,43.56
2023-02-11T21:17:19.896Z,43.66
2023-02-11T21:22:22.307Z,43.37
2023-02-11T21:27:31.382Z,43.05
2023-02-11T21:32:33.290Z,43.23
2023-02-11T21:37:35.121Z,43.25
2023-02-11T21:42:37.036Z,43.29
2023-02-11T21:47:39.071Z,43.07
2023-02-11T21:52:41.074Z,43.12
2023-02-11T21:57:43.265Z,43.34
2023-02-11T22:02:45.913Z,43.11
2023-02-11T22:07:49.004Z,43.22
2023-02-11T22:12:51.066Z,43.09
2023-02-11T22:17:53.000Z,43.08
2023-02-11T22:22:54.907Z,43.20
2023-02-11T22:27:56.926Z,42.74
2023-02-11T22:32:59.927Z,42.51
2023-02-11T22:38:01.856Z,42.65
2023-02-11T22:43:03.782Z,42.86
2023-02-11T22:48:06.164Z,43.06
2023-02-11T22:53:08.138Z,42.76
2023-02-11T22:58:10.454Z,42.77
2023-02-11T23:03:13.262Z,42.63
2023-02-11T23:08:15.316Z,42.59
2023-02-11T23:13:17.455Z,42.79
2023-02-11T23:18:19.484Z,42.47
2023-02-11T23:23:21.258Z,42.84
2023-02-11T23:28:23.218Z,42.98
2023-02-11T23:33:25.328Z,42.68
2023-02-11T23:38:27.434Z,42.72
2023-02-11T23:43:29.516Z,42.55
2023-02-11T23:48:31.933Z,42.47
2023-02-11T23:53:33.780Z,42.26
2023-02-11T23:58:36.517Z,42.67
